Flight Track Log - Related Links

Times and Time Zones

All times are in EDT time to prevent confusion due to time zone crossing. See the N448ND flight status page for this flight to view local times or setup timezone preferences in your user account.

Time Position Orientation Groundspeed Altitude Reporting Facility
EDT Latitude Longitude Course Direction KTS MPH feet Rate Location/Type
Wed 12:37:36 PM 27.4861 -80.3603 152° Southeast 29 33 200  Level Miami Center
Wed 12:38:38 PM 27.4811 -80.3392 105° East 70 81 900 629 Climbing Miami Center
Wed 12:39:40 PM 27.4828 -80.3169 85° East 68 78 1,500 532 Climbing Miami Center
Wed 12:40:42 PM 27.4858 -80.2944 81° East 68 78 2,000 480 Climbing Miami Center
Wed 12:41:45 PM 27.5133 -80.2967 356° North 97 112 2,500 480 Climbing Miami Center
Wed 12:42:47 PM 27.5436 -80.3025 350° North 102 117 3,000 242 Climbing Miami Center
Wed 12:43:00 PM 27.4975 -80.3726 152° Southeast  Level Estimated
Wed 12:43:49 PM 27.5675 -80.3233 322° Northwest 114 131 3,000  Level Miami Center
Wed 12:44:51 PM 27.5697 -80.3614 274° West 118 136 3,000  Level Miami Center
Wed 12:45:53 PM 27.5708 -80.3972 272° West 118 136 3,000  Level Miami Center
Wed 12:46:56 PM 27.5708 -80.4328 270° West 112 129 3,000  Level Miami Center
Wed 12:47:58 PM 27.5728 -80.4686 274° West 110 127 3,000 -48 Level Miami Center
Wed 12:49:00 PM 27.5769 -80.5031 278° West 110 127 2,900 -48 Descending Miami Center
Wed 12:50:02 PM 27.5792 -80.5386 274° West 109 125 2,900 48 Level Miami Center
Wed 12:51:04 PM 27.5822 -80.5731 276° West 108 124 3,000 96 Climbing Miami Center
Wed 12:52:07 PM 27.5886 -80.6067 282° West 113 130 3,100 144 Climbing Miami Center
Wed 12:53:09 PM 27.6086 -80.5928 32° Northeast 94 108 3,300 290 Climbing Miami Center
Wed 12:54:11 PM 27.6100 -80.5722 86° East 73 84 3,700 339 Climbing Miami Center
Wed 12:55:13 PM 27.5964 -80.5794 205° Southwest 97 112 4,000 144 Climbing Miami Center
Wed 12:56:16 PM 27.5861 -80.6131 251° West 108 124 4,000  Level Miami Center
Wed 12:57:18 PM 27.6100 -80.6186 348° North 110 127 4,000 -48 Level Miami Center
Wed 12:58:20 PM 27.6031 -80.5919 106° East 86 99 3,900 -290 Descending Miami Center
Wed 12:59:22 PM 27.5772 -80.5958 188° South 92 106 3,400 -532 Descending Miami Center
Wed 01:00:24 PM 27.5525 -80.5981 185° South 87 100 2,800 -624 Descending Miami Center
Wed 01:01:27 PM 27.5281 -80.5972 178° South 86 99 2,100 -384 Descending Miami Center
Wed 01:02:29 PM 27.5033 -80.5939 173° South 85 98 2,000 -97 Descending Miami Center
Wed 01:03:31 PM 27.5003 -80.5683 98° East 93 107 1,900 -97 Descending Miami Center
Wed 01:04:33 PM 27.5006 -80.5414 89° East 86 99 1,800 -48 Descending Miami Center
Wed 01:05:35 PM 27.4992 -80.5150 93° East 84 97 1,800 -48 Level Miami Center
Wed 01:06:37 PM 27.4983 -80.4889 92° East 80 92 1,700 -194 Descending Miami Center
Wed 01:07:39 PM 27.4981 -80.4650 91° East 78 90 1,400 -384 Descending Miami Center
Wed 01:08:42 PM 27.4972 -80.4447 93° East 65 75 900 -336 Descending Miami Center
Wed 01:09:44 PM 27.4967 -80.4222 92° East 66 76 700 -194 Descending Miami Center

Login

Don't have an account? Register now (free) for customized features, flight alerts, and more!